createdAt,value
2018-11-14T00:00:16.740Z,0
2018-11-14T00:00:42.866Z,0
2018-11-14T00:01:09.000Z,0
2018-11-14T00:01:35.154Z,0
2018-11-14T00:02:01.287Z,0
2018-11-14T00:02:27.415Z,0
2018-11-14T00:02:53.542Z,0
2018-11-14T00:03:19.665Z,0
2018-11-14T00:03:45.804Z,0
2018-11-14T00:04:11.961Z,0
2018-11-14T00:04:38.112Z,0
2018-11-14T00:05:04.249Z,0
2018-11-14T00:05:30.381Z,0
2018-11-14T00:05:56.513Z,0
2018-11-14T00:06:22.648Z,0
2018-11-14T00:06:48.772Z,0
2018-11-14T00:07:14.942Z,0
2018-11-14T00:07:41.063Z,0
2018-11-14T00:08:07.194Z,0
2018-11-14T00:08:33.353Z,0
2018-11-14T00:08:59.516Z,0
2018-11-14T00:09:25.654Z,0
2018-11-14T00:09:51.834Z,0
2018-11-14T00:10:18.324Z,0
2018-11-14T00:10:44.111Z,0
2018-11-14T00:11:10.237Z,0
2018-11-14T00:11:36.365Z,0
2018-11-14T00:12:02.524Z,0
2018-11-14T00:12:28.657Z,0
2018-11-14T00:12:54.784Z,0
2018-11-14T00:13:20.933Z,0
2018-11-14T00:13:47.070Z,0
2018-11-14T00:14:13.229Z,0
2018-11-14T00:14:39.362Z,0
2018-11-14T00:15:05.496Z,0
2018-11-14T00:15:31.625Z,0
2018-11-14T00:15:57.756Z,0
2018-11-14T00:16:23.922Z,0
2018-11-14T00:16:50.074Z,0
2018-11-14T00:17:16.211Z,0
2018-11-14T00:17:42.347Z,0
2018-11-14T00:18:08.495Z,0
2018-11-14T00:18:34.649Z,0
2018-11-14T00:19:00.783Z,0
2018-11-14T00:19:26.923Z,0
2018-11-14T00:19:53.147Z,0
2018-11-14T00:20:19.240Z,0
2018-11-14T00:20:45.372Z,0
2018-11-14T00:21:11.509Z,0
2018-11-14T00:21:37.660Z,0
2018-11-14T00:22:03.817Z,0
2018-11-14T00:22:29.946Z,0
2018-11-14T00:22:56.100Z,0
2018-11-14T00:23:22.233Z,0
2018-11-14T00:23:48.364Z,0
2018-11-14T00:24:14.497Z,0
2018-11-14T00:24:40.698Z,0
2018-11-14T00:25:06.780Z,0
2018-11-14T00:25:32.960Z,0
2018-11-14T00:25:59.136Z,0
2018-11-14T00:26:25.263Z,0
2018-11-14T00:26:51.950Z,0
2018-11-14T00:27:17.545Z,0
2018-11-14T00:27:43.686Z,0
2018-11-14T00:28:09.881Z,0
2018-11-14T00:28:36.405Z,0
2018-11-14T00:29:02.171Z,0
2018-11-14T00:29:28.314Z,0
2018-11-14T00:29:54.476Z,0
2018-11-14T00:30:20.607Z,0
2018-11-14T00:30:46.761Z,0
2018-11-14T00:31:12.886Z,0
2018-11-14T00:31:39.026Z,0
2018-11-14T00:32:05.151Z,0
2018-11-14T00:32:31.314Z,0
2018-11-14T00:32:57.444Z,0
2018-11-14T00:33:23.619Z,0
2018-11-14T00:33:49.753Z,0
2018-11-14T00:34:15.882Z,0
2018-11-14T00:34:42.127Z,0
2018-11-14T00:35:08.225Z,0
2018-11-14T00:35:34.441Z,0
2018-11-14T00:36:00.511Z,0
2018-11-14T00:36:26.655Z,0
2018-11-14T00:36:52.776Z,0
2018-11-14T00:37:18.909Z,0
2018-11-14T00:37:45.042Z,0
2018-11-14T00:38:11.169Z,0
2018-11-14T00:38:37.306Z,0
2018-11-14T00:39:03.437Z,0
2018-11-14T00:39:29.590Z,0
2018-11-14T00:39:55.724Z,0
2018-11-14T00:40:21.858Z,0
2018-11-14T00:40:47.990Z,0
2018-11-14T00:41:14.120Z,0
2018-11-14T00:41:40.249Z,0
2018-11-14T00:42:06.402Z,0
2018-11-14T00:42:32.539Z,0
2018-11-14T00:42:58.684Z,0
2018-11-14T00:43:24.820Z,0
2018-11-14T00:43:50.953Z,0
2018-11-14T00:44:17.076Z,0
2018-11-14T00:44:43.212Z,0
2018-11-14T00:45:09.343Z,0
2018-11-14T00:45:35.479Z,0
2018-11-14T00:46:01.614Z,0
2018-11-14T00:46:27.762Z,0
2018-11-14T00:46:53.917Z,0
2018-11-14T00:47:20.049Z,0
2018-11-14T00:47:46.176Z,0
2018-11-14T00:48:12.314Z,0
2018-11-14T00:48:38.447Z,0
2018-11-14T00:49:04.581Z,0
2018-11-14T00:49:30.711Z,0
2018-11-14T00:49:56.846Z,0
2018-11-14T00:50:23.014Z,0
2018-11-14T00:50:49.153Z,0
2018-11-14T00:51:15.283Z,0
2018-11-14T00:51:41.410Z,0
2018-11-14T00:52:07.541Z,0
2018-11-14T00:52:33.701Z,0
2018-11-14T00:52:59.834Z,0
2018-11-14T00:53:25.962Z,0
2018-11-14T00:53:52.098Z,0
2018-11-14T00:54:18.229Z,0
2018-11-14T00:54:44.365Z,0
2018-11-14T00:55:10.530Z,0
2018-11-14T00:55:36.669Z,0
2018-11-14T00:56:02.819Z,0
2018-11-14T00:56:28.954Z,0
2018-11-14T00:56:55.108Z,0
2018-11-14T00:57:21.283Z,0
2018-11-14T00:57:47.421Z,0
2018-11-14T00:58:13.553Z,0
2018-11-14T00:58:39.688Z,0
2018-11-14T00:59:05.836Z,0
2018-11-14T00:59:31.972Z,0
2018-11-14T00:59:58.179Z,0
2018-11-14T01:00:24.261Z,0
2018-11-14T01:00:50.409Z,0
2018-11-14T01:01:16.612Z,0
2018-11-14T01:01:42.865Z,0
2018-11-14T01:02:08.884Z,0
2018-11-14T01:02:35.637Z,0
2018-11-14T01:03:01.716Z,0
2018-11-14T01:03:27.870Z,0
2018-11-14T01:03:54.013Z,0
2018-11-14T01:04:20.461Z,0
2018-11-14T01:04:46.542Z,0
2018-11-14T01:05:12.669Z,0
2018-11-14T01:05:38.800Z,0
2018-11-14T01:06:04.965Z,0
2018-11-14T01:06:31.093Z,0
2018-11-14T01:06:57.221Z,0
2018-11-14T01:07:23.360Z,0
2018-11-14T01:07:49.488Z,0
2018-11-14T01:08:15.648Z,0
2018-11-14T01:08:41.804Z,0
2018-11-14T01:09:08.003Z,0
2018-11-14T01:09:34.146Z,0
2018-11-14T01:10:00.301Z,0
2018-11-14T01:10:26.454Z,0
2018-11-14T01:10:52.587Z,0
2018-11-14T01:11:18.720Z,0
2018-11-14T01:11:44.851Z,0
2018-11-14T01:12:11.435Z,0
2018-11-14T01:12:37.155Z,0
2018-11-14T01:13:03.369Z,0
2018-11-14T01:13:29.446Z,0
2018-11-14T01:13:55.577Z,0
2018-11-14T01:14:21.729Z,0
2018-11-14T01:14:47.860Z,0
2018-11-14T01:15:13.992Z,0
2018-11-14T01:15:40.123Z,0
2018-11-14T01:16:06.279Z,0
2018-11-14T01:16:32.412Z,0
2018-11-14T01:16:58.549Z,0
2018-11-14T01:17:24.752Z,0
2018-11-14T01:17:50.868Z,0
2018-11-14T01:18:17.021Z,0
2018-11-14T01:18:43.158Z,0
2018-11-14T01:19:09.307Z,0
2018-11-14T01:19:35.445Z,0
2018-11-14T01:20:01.578Z,0
2018-11-14T01:20:27.732Z,0
2018-11-14T01:20:53.863Z,0
2018-11-14T01:21:19.991Z,0
2018-11-14T01:21:46.550Z,0
2018-11-14T01:22:12.285Z,0
2018-11-14T01:22:38.418Z,0
2018-11-14T01:23:04.545Z,0
2018-11-14T01:23:30.685Z,0
2018-11-14T01:23:56.837Z,0
2018-11-14T01:24:22.996Z,0
2018-11-14T01:24:49.162Z,0
2018-11-14T01:25:15.287Z,0
2018-11-14T01:25:41.426Z,0
2018-11-14T01:26:07.556Z,0
2018-11-14T01:26:33.687Z,0
2018-11-14T01:26:59.841Z,0
2018-11-14T01:27:25.956Z,0
2018-11-14T01:27:52.085Z,0
2018-11-14T01:28:18.233Z,0
2018-11-14T01:28:44.367Z,0
2018-11-14T01:29:10.503Z,0
2018-11-14T01:29:36.629Z,0
2018-11-14T01:30:02.777Z,0
2018-11-14T01:30:28.934Z,0
2018-11-14T01:30:55.088Z,0
2018-11-14T01:31:21.225Z,0
2018-11-14T01:31:47.351Z,0
2018-11-14T01:32:13.507Z,0
2018-11-14T01:32:39.666Z,0
2018-11-14T01:33:05.818Z,0
2018-11-14T01:33:31.975Z,0
2018-11-14T01:33:58.193Z,0
2018-11-14T01:34:24.278Z,0
2018-11-14T01:34:50.439Z,0
2018-11-14T01:35:16.565Z,0
2018-11-14T01:35:42.750Z,0
2018-11-14T01:36:08.845Z,0
2018-11-14T01:36:34.971Z,0
2018-11-14T01:37:01.105Z,0
2018-11-14T01:37:27.243Z,0
2018-11-14T01:37:53.394Z,0
2018-11-14T01:38:19.545Z,0
2018-11-14T01:38:45.680Z,0
2018-11-14T01:39:11.815Z,0
2018-11-14T01:39:37.947Z,0
2018-11-14T01:40:04.106Z,0
2018-11-14T01:40:30.288Z,0
2018-11-14T01:40:56.447Z,0
2018-11-14T01:41:22.596Z,0
2018-11-14T01:41:48.725Z,0
2018-11-14T01:42:14.857Z,0
2018-11-14T01:42:40.986Z,0
2018-11-14T01:43:07.113Z,0
2018-11-14T01:43:33.244Z,0
2018-11-14T01:43:59.377Z,0
2018-11-14T01:44:25.506Z,0
2018-11-14T01:44:51.638Z,0
2018-11-14T01:45:17.773Z,0
2018-11-14T01:45:43.906Z,0
2018-11-14T01:46:10.039Z,0
2018-11-14T01:46:36.190Z,0
2018-11-14T01:47:02.315Z,0
2018-11-14T01:47:28.474Z,0
2018-11-14T01:47:54.601Z,0
2018-11-14T01:48:20.753Z,0
2018-11-14T01:48:46.884Z,0
2018-11-14T01:49:13.017Z,0
2018-11-14T01:49:39.169Z,0
2018-11-14T01:50:05.300Z,0
2018-11-14T01:50:31.432Z,0
2018-11-14T01:50:57.574Z,0
2018-11-14T01:51:23.705Z,0
2018-11-14T01:51:49.859Z,0
2018-11-14T01:52:15.998Z,0
2018-11-14T01:52:42.125Z,0
2018-11-14T01:53:08.331Z,0
2018-11-14T01:53:34.457Z,0
2018-11-14T01:54:00.593Z,0
2018-11-14T01:54:26.742Z,0
2018-11-14T01:54:52.903Z,0
2018-11-14T01:55:19.040Z,0
2018-11-14T01:55:45.171Z,0
2018-11-14T01:56:11.306Z,0
2018-11-14T01:56:37.429Z,0
2018-11-14T01:57:03.558Z,0
2018-11-14T01:57:29.699Z,0
2018-11-14T01:57:55.828Z,0
2018-11-14T01:58:21.962Z,0
2018-11-14T01:58:48.094Z,0
2018-11-14T01:59:14.252Z,0
2018-11-14T01:59:40.415Z,0
2018-11-14T02:00:06.541Z,0
2018-11-14T02:00:32.687Z,0
2018-11-14T02:00:58.836Z,0
2018-11-14T02:01:24.985Z,0
2018-11-14T02:01:51.162Z,0
2018-11-14T02:02:17.302Z,0
2018-11-14T02:02:43.458Z,0
2018-11-14T02:03:09.581Z,0
2018-11-14T02:03:35.717Z,0
2018-11-14T02:04:01.891Z,0
2018-11-14T02:04:28.026Z,0
2018-11-14T02:04:54.181Z,0
2018-11-14T02:05:20.313Z,0
2018-11-14T02:05:46.440Z,0
2018-11-14T02:06:12.569Z,0
2018-11-14T02:06:38.709Z,0
2018-11-14T02:07:04.882Z,0
2018-11-14T02:07:31.026Z,0
2018-11-14T02:07:57.162Z,0
2018-11-14T02:08:23.316Z,0
2018-11-14T02:08:49.451Z,0
2018-11-14T02:09:15.588Z,0
2018-11-14T02:09:41.716Z,0
2018-11-14T02:10:07.845Z,0
2018-11-14T02:10:33.995Z,0
2018-11-14T02:11:00.127Z,0
2018-11-14T02:11:26.253Z,0
2018-11-14T02:11:52.383Z,0
2018-11-14T02:12:18.524Z,0
2018-11-14T02:12:44.660Z,0
2018-11-14T02:13:10.834Z,0
2018-11-14T02:13:36.963Z,0
2018-11-14T02:14:03.089Z,0
2018-11-14T02:14:29.227Z,0
2018-11-14T02:14:55.355Z,0
2018-11-14T02:15:21.485Z,0
2018-11-14T02:15:47.619Z,0
2018-11-14T02:16:13.746Z,0
2018-11-14T02:16:39.878Z,0
2018-11-14T02:17:06.006Z,0
2018-11-14T02:17:32.164Z,0
2018-11-14T02:17:58.296Z,0
2018-11-14T02:18:24.433Z,0
2018-11-14T02:18:50.573Z,0
2018-11-14T02:19:16.718Z,0
2018-11-14T02:19:42.850Z,0
2018-11-14T02:20:08.978Z,0
2018-11-14T02:20:35.113Z,0
2018-11-14T02:21:01.272Z,0
2018-11-14T02:21:27.442Z,0
2018-11-14T02:21:53.598Z,0
2018-11-14T02:22:19.731Z,0
2018-11-14T02:22:45.861Z,0
2018-11-14T02:23:11.992Z,0
2018-11-14T02:23:38.189Z,0
2018-11-14T02:24:04.320Z,0
2018-11-14T02:24:30.453Z,0
2018-11-14T02:24:56.591Z,0
2018-11-14T02:25:22.718Z,0
2018-11-14T02:25:48.850Z,0
2018-11-14T02:26:14.976Z,0
2018-11-14T02:26:41.108Z,0
2018-11-14T02:27:07.237Z,0
2018-11-14T02:27:33.382Z,0
2018-11-14T02:27:59.517Z,0
2018-11-14T02:28:25.646Z,0
2018-11-14T02:28:51.778Z,0
2018-11-14T02:29:17.909Z,0
2018-11-14T02:29:44.040Z,0
2018-11-14T02:30:10.196Z,0
2018-11-14T02:30:36.353Z,0
2018-11-14T02:31:02.516Z,0
2018-11-14T02:31:28.645Z,0
2018-11-14T02:31:54.790Z,0
2018-11-14T02:32:20.941Z,0
2018-11-14T02:32:47.107Z,0
2018-11-14T02:33:13.263Z,0
2018-11-14T02:33:39.443Z,0
2018-11-14T02:34:05.620Z,0
2018-11-14T02:34:31.792Z,0
2018-11-14T02:34:57.933Z,0
2018-11-14T02:35:24.095Z,0
2018-11-14T02:35:50.200Z,0
2018-11-14T02:36:16.324Z,0
2018-11-14T02:36:42.455Z,0
2018-11-14T02:37:08.606Z,0
2018-11-14T02:37:34.764Z,0
2018-11-14T02:38:00.899Z,0
2018-11-14T02:38:27.169Z,0
2018-11-14T02:38:53.201Z,0
2018-11-14T02:39:19.329Z,0
2018-11-14T02:39:45.456Z,0
2018-11-14T02:40:11.605Z,0
2018-11-14T02:40:37.732Z,0
2018-11-14T02:41:03.908Z,0
2018-11-14T02:41:30.051Z,0
2018-11-14T02:41:56.183Z,0
2018-11-14T02:42:22.305Z,0
2018-11-14T02:42:48.433Z,0
2018-11-14T02:43:14.576Z,0
2018-11-14T02:43:40.706Z,0
2018-11-14T02:44:06.833Z,0
2018-11-14T02:44:32.963Z,0
2018-11-14T02:44:59.100Z,0
2018-11-14T02:45:25.275Z,0
2018-11-14T02:45:51.446Z,0
2018-11-14T02:46:17.576Z,0
2018-11-14T02:46:43.703Z,0
2018-11-14T02:47:09.842Z,0
2018-11-14T02:47:35.972Z,0
2018-11-14T02:48:02.101Z,0
2018-11-14T02:48:28.257Z,0
2018-11-14T02:48:54.378Z,0
2018-11-14T02:49:20.511Z,0
2018-11-14T02:49:46.672Z,0
2018-11-14T02:50:12.804Z,0
2018-11-14T02:50:38.963Z,0
2018-11-14T02:51:05.098Z,0
2018-11-14T02:51:31.274Z,0
2018-11-14T02:51:57.433Z,0
2018-11-14T02:52:23.616Z,0
2018-11-14T02:52:49.783Z,0
2018-11-14T02:53:15.939Z,0
2018-11-14T02:53:42.129Z,0
2018-11-14T02:54:08.251Z,0
2018-11-14T02:54:34.406Z,0
2018-11-14T02:55:00.537Z,0
2018-11-14T02:55:26.692Z,0
2018-11-14T02:55:52.846Z,0
2018-11-14T02:56:18.994Z,0
2018-11-14T02:56:45.153Z,0
2018-11-14T02:57:11.303Z,0
2018-11-14T02:57:37.438Z,0
2018-11-14T02:58:03.567Z,0
2018-11-14T02:58:29.729Z,0
2018-11-14T02:58:55.863Z,0
2018-11-14T02:59:22.056Z,0
2018-11-14T02:59:48.190Z,0
2018-11-14T03:00:14.317Z,0
2018-11-14T03:00:40.447Z,0
2018-11-14T03:01:06.597Z,0
2018-11-14T03:01:32.803Z,0
2018-11-14T03:01:58.962Z,0
2018-11-14T03:02:25.089Z,0
2018-11-14T03:02:51.243Z,0
2018-11-14T03:03:17.431Z,0
2018-11-14T03:03:43.589Z,0
2018-11-14T03:04:09.761Z,0
2018-11-14T03:04:35.909Z,0
2018-11-14T03:05:02.064Z,0
2018-11-14T03:05:28.188Z,0
2018-11-14T03:05:54.322Z,0
2018-11-14T03:06:20.448Z,0
2018-11-14T03:06:46.572Z,0
2018-11-14T03:07:12.755Z,0
2018-11-14T03:07:38.899Z,0
2018-11-14T03:08:05.026Z,0
2018-11-14T03:08:31.159Z,0
2018-11-14T03:08:57.310Z,0
2018-11-14T03:09:23.492Z,0
2018-11-14T03:09:49.664Z,0
2018-11-14T03:10:15.797Z,0
2018-11-14T03:10:41.954Z,0
2018-11-14T03:11:08.089Z,0
2018-11-14T03:11:34.243Z,0
2018-11-14T03:12:00.399Z,0
2018-11-14T03:12:26.584Z,0
2018-11-14T03:12:52.696Z,0
2018-11-14T03:13:18.859Z,0
2018-11-14T03:13:45.009Z,0
2018-11-14T03:14:11.167Z,0
2018-11-14T03:14:37.310Z,0
2018-11-14T03:15:03.447Z,0
2018-11-14T03:15:29.575Z,0
2018-11-14T03:15:55.728Z,0
2018-11-14T03:16:21.861Z,0
2018-11-14T03:16:48.014Z,0
2018-11-14T03:17:14.223Z,0
2018-11-14T03:17:40.349Z,0
2018-11-14T03:18:06.506Z,0
2018-11-14T03:18:32.636Z,0
2018-11-14T03:18:58.772Z,0
2018-11-14T03:19:24.923Z,0
2018-11-14T03:19:51.073Z,0
2018-11-14T03:20:17.207Z,0
2018-11-14T03:20:43.345Z,0
2018-11-14T03:21:09.499Z,0
2018-11-14T03:21:35.656Z,0
2018-11-14T03:22:01.830Z,0
2018-11-14T03:22:27.965Z,0
2018-11-14T03:22:54.156Z,0
2018-11-14T03:23:20.280Z,0
2018-11-14T03:23:46.438Z,0
2018-11-14T03:24:12.611Z,0
2018-11-14T03:24:38.746Z,0
2018-11-14T03:25:04.930Z,0
2018-11-14T03:25:31.060Z,0
2018-11-14T03:25:57.198Z,0
2018-11-14T03:26:23.345Z,0
2018-11-14T03:26:49.473Z,0
2018-11-14T03:27:15.605Z,0
2018-11-14T03:27:41.733Z,0
2018-11-14T03:28:07.871Z,0
2018-11-14T03:28:33.998Z,0
2018-11-14T03:29:00.178Z,0
2018-11-14T03:29:26.340Z,0
2018-11-14T03:29:52.491Z,0
2018-11-14T03:30:18.627Z,0
2018-11-14T03:30:44.806Z,0
2018-11-14T03:31:11.001Z,0
2018-11-14T03:31:37.131Z,0
2018-11-14T03:32:03.310Z,0
2018-11-14T03:32:29.463Z,0
2018-11-14T03:32:55.666Z,0
2018-11-14T03:33:21.791Z,0
2018-11-14T03:33:47.944Z,0
2018-11-14T03:34:14.116Z,0
2018-11-14T03:34:40.242Z,0
2018-11-14T03:35:06.394Z,0
2018-11-14T03:35:32.522Z,0
2018-11-14T03:35:58.706Z,0
2018-11-14T03:36:24.837Z,0
2018-11-14T03:36:50.969Z,0
2018-11-14T03:37:17.105Z,0
2018-11-14T03:37:43.278Z,0
2018-11-14T03:38:09.403Z,0
2018-11-14T03:38:35.555Z,0
2018-11-14T03:39:01.718Z,0
2018-11-14T03:39:27.869Z,0
2018-11-14T03:39:54.028Z,0
2018-11-14T03:40:20.179Z,0
2018-11-14T03:40:46.307Z,0
2018-11-14T03:41:12.491Z,0
2018-11-14T03:41:38.624Z,0
2018-11-14T03:42:04.772Z,0
2018-11-14T03:42:30.898Z,0
2018-11-14T03:42:57.061Z,0
2018-11-14T03:43:23.213Z,0
2018-11-14T03:43:49.350Z,0
2018-11-14T03:44:15.478Z,0
2018-11-14T03:44:41.635Z,0
2018-11-14T03:45:07.795Z,0
2018-11-14T03:45:33.951Z,0
2018-11-14T03:46:00.168Z,0
2018-11-14T03:46:26.348Z,0
2018-11-14T03:46:52.499Z,0
2018-11-14T03:47:18.628Z,0
2018-11-14T03:47:44.753Z,0
2018-11-14T03:48:10.884Z,0
2018-11-14T03:48:37.034Z,0
2018-11-14T03:49:03.191Z,0
2018-11-14T03:49:29.327Z,0
2018-11-14T03:49:55.483Z,0
2018-11-14T03:50:21.647Z,0
2018-11-14T03:50:47.800Z,0
2018-11-14T03:51:13.932Z,0
2018-11-14T03:51:40.072Z,0
2018-11-14T03:52:06.240Z,0
2018-11-14T03:52:32.420Z,0
2018-11-14T03:52:58.585Z,0
2018-11-14T03:53:24.759Z,0
2018-11-14T03:53:50.912Z,0
2018-11-14T03:54:17.046Z,0
2018-11-14T03:54:43.177Z,0
2018-11-14T03:55:09.337Z,0
2018-11-14T03:55:35.467Z,0
2018-11-14T03:56:01.599Z,0
2018-11-14T03:56:27.729Z,0
2018-11-14T03:56:53.882Z,0
2018-11-14T03:57:20.024Z,0
2018-11-14T03:57:46.150Z,0
2018-11-14T03:58:12.293Z,0
2018-11-14T03:58:38.461Z,0
2018-11-14T03:59:04.588Z,0
2018-11-14T03:59:30.748Z,0
2018-11-14T03:59:56.901Z,0
2018-11-14T04:00:23.058Z,0
2018-11-14T04:00:49.219Z,0
2018-11-14T04:01:15.354Z,0
2018-11-14T04:01:41.501Z,0
2018-11-14T04:02:07.662Z,0
2018-11-14T04:02:33.799Z,0
2018-11-14T04:02:59.932Z,0
2018-11-14T04:03:26.109Z,0
2018-11-14T04:03:52.286Z,0
2018-11-14T04:04:18.438Z,0
2018-11-14T04:04:44.574Z,0
2018-11-14T04:05:10.726Z,0
2018-11-14T04:05:36.941Z,0
2018-11-14T04:06:02.992Z,0
2018-11-14T04:06:29.150Z,0
2018-11-14T04:06:55.328Z,0
2018-11-14T04:07:21.482Z,0
2018-11-14T04:07:47.633Z,0
2018-11-14T04:08:13.762Z,0
2018-11-14T04:08:39.923Z,0
2018-11-14T04:09:06.116Z,0
2018-11-14T04:09:32.351Z,0
2018-11-14T04:09:58.385Z,0
2018-11-14T04:10:24.545Z,0
2018-11-14T04:10:50.673Z,0
2018-11-14T04:11:16.833Z,0
2018-11-14T04:11:42.962Z,0
2018-11-14T04:12:09.088Z,0
2018-11-14T04:12:35.223Z,0
2018-11-14T04:13:01.351Z,0
2018-11-14T04:13:27.505Z,0
2018-11-14T04:13:53.647Z,0
2018-11-14T04:14:19.776Z,0
2018-11-14T04:14:45.951Z,0
2018-11-14T04:15:12.083Z,0
2018-11-14T04:15:38.274Z,0
2018-11-14T04:16:04.423Z,0
2018-11-14T04:16:30.572Z,0
2018-11-14T04:16:56.694Z,0
2018-11-14T04:17:22.828Z,0
2018-11-14T04:17:48.961Z,0
2018-11-14T04:18:15.146Z,0
2018-11-14T04:18:41.329Z,0
2018-11-14T04:19:07.461Z,0
2018-11-14T04:19:33.634Z,0
2018-11-14T04:19:59.975Z,0
2018-11-14T04:20:26.146Z,0
2018-11-14T04:20:52.302Z,0
2018-11-14T04:21:18.441Z,0
2018-11-14T04:21:44.596Z,0
2018-11-14T04:22:10.729Z,0
2018-11-14T04:22:36.860Z,0
2018-11-14T04:23:02.989Z,0
2018-11-14T04:23:29.140Z,0
2018-11-14T04:23:55.274Z,0
2018-11-14T04:24:21.407Z,0
2018-11-14T04:24:47.536Z,0
2018-11-14T04:25:13.671Z,0
2018-11-14T04:25:39.800Z,0
2018-11-14T04:26:05.979Z,0
2018-11-14T04:26:32.122Z,0
2018-11-14T04:26:58.254Z,0
2018-11-14T04:27:24.463Z,0
2018-11-14T04:27:50.616Z,0
2018-11-14T04:28:16.748Z,0
2018-11-14T04:28:42.884Z,0
2018-11-14T04:29:09.018Z,0
2018-11-14T04:29:35.146Z,0
2018-11-14T04:30:01.275Z,0
2018-11-14T04:30:27.429Z,0
2018-11-14T04:30:53.578Z,0
2018-11-14T04:31:19.711Z,0
2018-11-14T04:31:45.891Z,0
2018-11-14T04:32:12.044Z,0
2018-11-14T04:32:38.171Z,0
2018-11-14T04:33:04.308Z,0
2018-11-14T04:33:30.450Z,0
2018-11-14T04:33:56.587Z,0
2018-11-14T04:34:22.758Z,0
2018-11-14T04:34:48.888Z,0
2018-11-14T04:35:15.021Z,0
2018-11-14T04:35:41.179Z,0
2018-11-14T04:36:07.310Z,0
2018-11-14T04:36:33.462Z,0
2018-11-14T04:36:59.597Z,0
2018-11-14T04:37:25.741Z,0
2018-11-14T04:37:51.879Z,0
2018-11-14T04:38:18.045Z,0
2018-11-14T04:38:44.171Z,0
2018-11-14T04:39:10.305Z,0
2018-11-14T04:39:36.433Z,0
2018-11-14T04:40:02.559Z,0
2018-11-14T04:40:28.729Z,0
2018-11-14T04:40:54.885Z,0
2018-11-14T04:41:21.049Z,0
2018-11-14T04:41:47.218Z,0
2018-11-14T04:42:13.379Z,0
2018-11-14T04:42:39.494Z,0
2018-11-14T04:43:05.647Z,0
2018-11-14T04:43:31.783Z,0
2018-11-14T04:43:57.939Z,0
2018-11-14T04:44:24.121Z,0
2018-11-14T04:44:50.259Z,0
2018-11-14T04:45:16.461Z,0
2018-11-14T04:45:42.633Z,0
2018-11-14T04:46:08.787Z,0
2018-11-14T04:46:34.947Z,0
2018-11-14T04:47:01.109Z,0
2018-11-14T04:47:27.229Z,0
2018-11-14T04:47:53.401Z,0
2018-11-14T04:48:19.708Z,0
2018-11-14T04:48:45.676Z,0
2018-11-14T04:49:11.814Z,0
2018-11-14T04:49:37.939Z,0
2018-11-14T04:50:04.095Z,0
2018-11-14T04:50:30.256Z,0
2018-11-14T04:50:56.407Z,0
2018-11-14T04:51:22.539Z,0
2018-11-14T04:51:48.696Z,0
2018-11-14T04:52:14.828Z,0
2018-11-14T04:52:40.968Z,0
2018-11-14T04:53:07.099Z,0
2018-11-14T04:53:33.256Z,0
2018-11-14T04:53:59.387Z,0
2018-11-14T04:54:25.522Z,0
2018-11-14T04:54:51.679Z,0
2018-11-14T04:55:17.832Z,0
2018-11-14T04:55:44.014Z,0
2018-11-14T04:56:10.171Z,0
2018-11-14T04:56:36.313Z,0
2018-11-14T04:57:02.481Z,0
2018-11-14T04:57:28.630Z,0
2018-11-14T04:57:54.769Z,0
2018-11-14T04:58:20.928Z,0
2018-11-14T04:58:47.075Z,0
2018-11-14T04:59:13.210Z,0
2018-11-14T04:59:39.338Z,0
2018-11-14T05:00:05.469Z,0
2018-11-14T05:00:31.608Z,0
2018-11-14T05:00:57.739Z,0
2018-11-14T05:01:23.906Z,0
2018-11-14T05:01:50.059Z,0
2018-11-14T05:02:16.261Z,0
2018-11-14T05:02:42.446Z,0
2018-11-14T05:03:08.521Z,0
2018-11-14T05:03:34.655Z,0
2018-11-14T05:04:00.802Z,0
2018-11-14T05:04:26.927Z,0
2018-11-14T05:04:53.076Z,0
2018-11-14T05:05:19.243Z,0
2018-11-14T05:05:45.393Z,0
2018-11-14T05:06:11.528Z,0
2018-11-14T05:06:37.654Z,0
2018-11-14T05:07:03.785Z,0
2018-11-14T05:07:29.959Z,0
2018-11-14T05:07:56.092Z,0
2018-11-14T05:08:22.247Z,0
2018-11-14T05:08:48.377Z,0
2018-11-14T05:09:14.529Z,0
2018-11-14T05:09:40.678Z,0
2018-11-14T05:10:06.842Z,0
2018-11-14T05:10:32.989Z,0
2018-11-14T05:10:59.123Z,0
2018-11-14T05:11:25.281Z,0
2018-11-14T05:11:51.417Z,0
2018-11-14T05:12:17.547Z,0
2018-11-14T05:12:43.739Z,0
2018-11-14T05:13:09.886Z,0
2018-11-14T05:13:35.970Z,0
2018-11-14T05:14:02.104Z,0
2018-11-14T05:14:28.234Z,0
2018-11-14T05:14:54.369Z,0
2018-11-14T05:15:20.527Z,0
2018-11-14T05:15:46.663Z,0
2018-11-14T05:16:12.839Z,0
2018-11-14T05:16:38.996Z,0
2018-11-14T05:17:05.131Z,0
2018-11-14T05:17:31.262Z,0
2018-11-14T05:17:57.394Z,0
2018-11-14T05:18:23.562Z,0
2018-11-14T05:18:49.688Z,0
2018-11-14T05:19:15.819Z,0
2018-11-14T05:19:41.975Z,0
2018-11-14T05:20:08.155Z,0
2018-11-14T05:20:34.310Z,0
2018-11-14T05:21:00.439Z,0
2018-11-14T05:21:26.571Z,0
2018-11-14T05:21:52.699Z,0
2018-11-14T05:22:18.834Z,0
2018-11-14T05:22:44.991Z,0
2018-11-14T05:23:11.129Z,0
2018-11-14T05:23:37.316Z,0
2018-11-14T05:24:03.437Z,0
2018-11-14T05:24:29.633Z,0
2018-11-14T05:24:55.705Z,0
2018-11-14T05:25:21.846Z,0
2018-11-14T05:25:48.009Z,0
2018-11-14T05:26:14.169Z,0
2018-11-14T05:26:40.370Z,0
2018-11-14T05:27:06.520Z,0
2018-11-14T05:27:32.653Z,0
2018-11-14T05:27:58.789Z,0
2018-11-14T05:28:24.922Z,0
2018-11-14T05:28:51.070Z,0
2018-11-14T05:29:17.204Z,0
2018-11-14T05:29:43.340Z,0
2018-11-14T05:30:09.473Z,0
2018-11-14T05:30:35.600Z,0
2018-11-14T05:31:01.744Z,0
2018-11-14T05:31:27.870Z,0
2018-11-14T05:31:54.080Z,0
2018-11-14T05:32:20.174Z,0
2018-11-14T05:32:46.301Z,0
2018-11-14T05:33:12.429Z,0
2018-11-14T05:33:38.553Z,0
2018-11-14T05:34:04.709Z,0
2018-11-14T05:34:30.865Z,0
2018-11-14T05:34:56.995Z,0
2018-11-14T05:35:23.130Z,0
2018-11-14T05:35:49.287Z,0
2018-11-14T05:36:15.416Z,0
2018-11-14T05:36:41.544Z,0
2018-11-14T05:37:07.695Z,0
2018-11-14T05:37:33.823Z,0
2018-11-14T05:37:59.954Z,0
2018-11-14T05:38:26.079Z,0
2018-11-14T05:38:52.240Z,0
2018-11-14T05:39:18.393Z,0
2018-11-14T05:39:44.661Z,0
2018-11-14T05:40:10.794Z,0
2018-11-14T05:40:36.870Z,0
2018-11-14T05:41:02.999Z,0
2018-11-14T05:41:29.135Z,0
2018-11-14T05:41:55.264Z,0
2018-11-14T05:42:21.394Z,0
2018-11-14T05:42:47.523Z,0
2018-11-14T05:43:13.655Z,0
2018-11-14T05:43:39.789Z,0
2018-11-14T05:44:05.946Z,0
2018-11-14T05:44:32.074Z,0
2018-11-14T05:44:58.222Z,0
2018-11-14T05:45:24.360Z,0
2018-11-14T05:45:50.510Z,0
2018-11-14T05:46:16.671Z,0
2018-11-14T05:46:42.807Z,0
2018-11-14T05:47:08.929Z,0
2018-11-14T05:47:35.093Z,0
2018-11-14T05:48:01.227Z,0
2018-11-14T05:48:27.360Z,0
2018-11-14T05:48:53.518Z,0
2018-11-14T05:49:19.629Z,0
2018-11-14T05:49:45.760Z,0
2018-11-14T05:50:11.894Z,0
2018-11-14T05:50:38.050Z,0
2018-11-14T05:51:04.180Z,0
2018-11-14T05:51:30.312Z,0
2018-11-14T05:51:56.441Z,0
2018-11-14T05:52:22.569Z,0
2018-11-14T05:52:48.701Z,0
2018-11-14T05:53:14.831Z,0
2018-11-14T05:53:40.962Z,0
2018-11-14T05:54:07.093Z,0
2018-11-14T05:54:33.227Z,0
2018-11-14T05:54:59.385Z,0
2018-11-14T05:55:25.496Z,0
2018-11-14T05:55:51.619Z,0
2018-11-14T05:56:17.757Z,0
2018-11-14T05:56:43.890Z,0
2018-11-14T05:57:10.022Z,0
2018-11-14T05:57:36.168Z,0
2018-11-14T05:58:02.322Z,0
2018-11-14T05:58:28.456Z,0
2018-11-14T05:58:54.639Z,0
2018-11-14T05:59:20.790Z,0
2018-11-14T05:59:46.925Z,0
2018-11-14T06:00:13.059Z,0
2018-11-14T06:00:39.191Z,0
2018-11-14T06:01:05.323Z,0
2018-11-14T06:01:31.449Z,0
2018-11-14T06:01:57.584Z,0
2018-11-14T06:02:23.737Z,0
2018-11-14T06:02:49.871Z,0
2018-11-14T06:03:15.996Z,0
2018-11-14T06:03:42.134Z,0
2018-11-14T06:04:08.261Z,0
2018-11-14T06:04:34.392Z,0
2018-11-14T06:05:00.520Z,0
2018-11-14T06:05:26.650Z,0
2018-11-14T06:05:52.804Z,0
2018-11-14T06:06:18.938Z,4
2018-11-14T06:06:45.068Z,4
2018-11-14T06:07:11.266Z,4
2018-11-14T06:07:37.378Z,4
2018-11-14T06:08:03.506Z,0
2018-11-14T06:08:29.661Z,0
2018-11-14T06:08:55.793Z,0
2018-11-14T06:09:21.930Z,4
2018-11-14T06:09:48.057Z,4
2018-11-14T06:10:14.191Z,4
2018-11-14T06:10:40.346Z,4
2018-11-14T06:11:06.501Z,0
2018-11-14T06:11:32.626Z,4
2018-11-14T06:11:58.758Z,4
2018-11-14T06:12:24.892Z,4
2018-11-14T06:12:51.024Z,8
2018-11-14T06:13:17.157Z,4
2018-11-14T06:13:43.340Z,4
2018-11-14T06:14:09.478Z,8
2018-11-14T06:14:35.616Z,4
2018-11-14T06:15:01.777Z,8
2018-11-14T06:15:27.974Z,8
2018-11-14T06:15:54.022Z,8
2018-11-14T06:16:20.159Z,8
2018-11-14T06:16:46.314Z,8
2018-11-14T06:17:12.469Z,12
2018-11-14T06:17:38.609Z,12
2018-11-14T06:18:04.738Z,8
2018-11-14T06:18:30.875Z,12
2018-11-14T06:18:57.004Z,12
2018-11-14T06:19:23.138Z,12
2018-11-14T06:19:49.284Z,12
2018-11-14T06:20:15.420Z,20
2018-11-14T06:20:41.571Z,20
2018-11-14T06:21:07.694Z,16
2018-11-14T06:21:33.822Z,20
2018-11-14T06:22:00.085Z,20
2018-11-14T06:22:26.089Z,24
2018-11-14T06:22:52.226Z,24
2018-11-14T06:23:18.354Z,28
2018-11-14T06:23:44.590Z,28
2018-11-14T06:24:10.637Z,32
2018-11-14T06:24:36.769Z,32
2018-11-14T06:25:02.901Z,36
2018-11-14T06:25:29.061Z,40
2018-11-14T06:25:55.211Z,40
2018-11-14T06:26:21.349Z,44